Time;durP1;ratioP1;P1;durP2;ratioP2;P2;SDS_P1;SDS_P2;PMS_P1;PMS_P2;Temp;Humidity;BMP_temperature;BMP_pressure;BME280_temperature;BME280_humidity;BME280_pressure;Samples;Min_cycle;Max_cycle;Signal;HPM_P1;HPM_P2
2024/01/01 00:02:01;;;;;;;12.37;3.03;;;24.20;99.90;;;;;;5013234;28;20215;-73
2024/01/01 00:04:30;;;;;;;12.40;2.97;;;24.40;99.90;;;;;;4995223;28;20543;-72
2024/01/01 00:06:58;;;;;;;11.23;2.80;;;24.40;99.90;;;;;;5012962;28;20216;-73
2024/01/01 00:09:25;;;;;;;5.83;2.33;;;24.30;99.90;;;;;;5012846;28;20532;-73
2024/01/01 00:11:53;;;;;;;9.17;2.97;;;24.10;99.90;;;;;;5012773;28;20173;-72
2024/01/01 00:14:21;;;;;;;10.77;3.00;;;24.00;99.90;;;;;;5012563;28;20296;-73
2024/01/01 00:16:48;;;;;;;6.53;2.40;;;23.90;99.90;;;;;;5012856;28;20596;-73
2024/01/01 00:19:16;;;;;;;5.83;2.30;;;23.90;99.90;;;;;;5012629;28;20170;-73
2024/01/01 00:21:44;;;;;;;5.80;2.30;;;23.80;99.90;;;;;;5012443;28;20195;-74
2024/01/01 00:24:11;;;;;;;10.00;2.40;;;23.70;99.90;;;;;;5012788;28;20265;-73
2024/01/01 00:26:39;;;;;;;11.10;2.93;;;23.80;99.90;;;;;;5013007;28;20232;-73
2024/01/01 00:29:09;;;;;;;10.80;2.27;;;23.80;99.90;;;;;;5013500;28;20197;-73
2024/01/01 00:31:39;;;;;;;9.87;2.17;;;23.90;99.90;;;;;;5013278;28;20186;-73
2024/01/01 00:34:07;;;;;;;7.93;2.00;;;23.80;99.90;;;;;;5012823;28;20679;-73
2024/01/01 00:36:34;;;;;;;6.07;1.50;;;23.80;99.90;;;;;;5013581;28;20256;-74
2024/01/01 00:39:02;;;;;;;9.90;1.80;;;23.70;99.90;;;;;;5013759;28;20177;-73
2024/01/01 00:41:30;;;;;;;7.03;1.80;;;23.90;99.90;;;;;;5013728;28;20220;-73
2024/01/01 00:43:58;;;;;;;4.83;1.70;;;23.90;99.90;;;;;;4999585;28;20719;-74
2024/01/01 00:46:25;;;;;;;7.07;1.97;;;23.90;99.90;;;;;;5011842;28;20276;-73
2024/01/01 00:48:53;;;;;;;12.47;2.07;;;23.90;99.90;;;;;;5011984;28;20181;-73
2024/01/01 00:51:21;;;;;;;6.63;1.50;;;23.90;99.90;;;;;;5011204;28;20278;-73
2024/01/01 00:53:49;;;;;;;5.83;1.50;;;23.90;99.90;;;;;;5011737;28;20214;-73
2024/01/01 00:56:16;;;;;;;5.90;1.33;;;23.90;99.90;;;;;;5011846;28;20186;-74
2024/01/01 00:58:44;;;;;;;6.43;1.10;;;23.90;99.90;;;;;;5011727;28;20188;-73
2024/01/01 01:01:12;;;;;;;4.87;1.40;;;23.90;99.90;;;;;;5011553;28;20359;-73
2024/01/01 01:03:39;;;;;;;10.17;2.37;;;23.90;99.90;;;;;;4994434;28;20189;-73
2024/01/01 01:06:07;;;;;;;10.17;1.80;;;24.00;99.90;;;;;;5011978;28;20178;-73
2024/01/01 01:08:35;;;;;;;10.30;2.43;;;24.10;99.90;;;;;;4994177;28;20670;-73
2024/01/01 01:11:02;;;;;;;7.23;1.70;;;24.10;99.90;;;;;;5012049;28;20280;-73
2024/01/01 01:13:30;;;;;;;7.33;1.40;;;24.10;99.90;;;;;;5020432;28;20206;-73
2024/01/01 01:15:58;;;;;;;8.40;1.80;;;24.10;99.90;;;;;;5011926;28;20178;-76
2024/01/01 01:18:25;;;;;;;6.33;1.70;;;24.10;99.90;;;;;;5011841;28;20198;-71
2024/01/01 01:20:53;;;;;;;3.33;1.20;;;24.00;99.90;;;;;;5011146;28;20188;-73
2024/01/01 01:23:21;;;;;;;6.13;1.50;;;24.00;99.90;;;;;;5012047;28;20217;-73
2024/01/01 01:25:49;;;;;;;4.83;1.23;;;24.10;99.90;;;;;;4994161;28;20181;-73
2024/01/01 01:28:24;;;;;;;6.20;1.43;;;24.10;99.90;;;;;;5011462;28;20181;-73
2024/01/01 01:30:52;;;;;;;10.33;1.90;;;24.20;99.90;;;;;;5011625;28;20193;-73
2024/01/01 01:33:20;;;;;;;6.53;1.90;;;24.20;99.90;;;;;;5011520;28;20304;-73
2024/01/01 01:35:47;;;;;;;6.27;1.50;;;24.20;99.90;;;;;;5011770;28;20268;-73
2024/01/01 01:38:15;;;;;;;7.63;1.73;;;24.40;99.90;;;;;;5011848;28;20547;-73
2024/01/01 01:40:43;;;;;;;7.30;1.93;;;24.50;99.90;;;;;;5011681;28;20173;-73
2024/01/01 01:43:24;;;;;;;4.37;1.63;;;24.50;99.90;;;;;;5012666;28;20177;-73
2024/01/01 01:45:52;;;;;;;4.80;1.33;;;24.50;99.90;;;;;;5016048;28;20178;-73
2024/01/01 01:48:21;;;;;;;6.43;1.60;;;24.40;99.90;;;;;;5016962;28;20185;-74
2024/01/01 01:50:51;;;;;;;8.80;1.43;;;24.50;99.90;;;;;;5016108;28;20174;-73
2024/01/01 01:53:23;;;;;;;5.10;1.30;;;24.40;99.90;;;;;;5004653;28;20229;-73
2024/01/01 01:55:53;;;;;;;6.03;1.80;;;24.30;99.90;;;;;;5016852;28;20174;-75
2024/01/01 01:58:22;;;;;;;8.03;2.20;;;24.30;99.90;;;;;;5014873;28;20185;-73
2024/01/01 02:00:51;;;;;;;8.97;1.80;;;24.20;99.90;;;;;;5016274;28;20235;-74
2024/01/01 02:03:19;;;;;;;6.00;1.77;;;23.90;99.90;;;;;;5016507;28;20174;-74
2024/01/01 02:05:47;;;;;;;8.10;1.83;;;23.60;99.90;;;;;;5016355;28;20537;-75
2024/01/01 02:08:15;;;;;;;6.50;1.50;;;22.90;99.90;;;;;;5015337;28;20220;-74
2024/01/01 02:10:44;;;;;;;10.87;1.73;;;22.60;99.90;;;;;;5016314;28;20182;-72
2024/01/01 02:13:28;;;;;;;9.50;2.17;;;22.40;99.90;;;;;;5016022;28;20595;-72
2024/01/01 02:15:57;;;;;;;7.57;1.80;;;22.50;99.90;;;;;;5016179;28;20234;-74
2024/01/01 02:18:27;;;;;;;6.90;1.33;;;22.70;99.90;;;;;;5015779;28;20203;-73
2024/01/01 02:20:56;;;;;;;5.67;1.43;;;22.70;99.90;;;;;;5013300;28;20180;-75
2024/01/01 02:23:26;;;;;;;7.90;1.40;;;22.90;99.90;;;;;;5000718;28;20186;-75
2024/01/01 02:25:54;;;;;;;4.57;1.37;;;23.00;99.90;;;;;;5015941;28;20192;-72
2024/01/01 02:28:22;;;;;;;9.70;1.87;;;23.10;99.90;;;;;;5015821;28;20182;-73
2024/01/01 02:30:50;;;;;;;8.60;1.40;;;23.10;99.90;;;;;;5015905;28;20180;-72
2024/01/01 02:33:17;;;;;;;5.50;1.63;;;23.10;99.90;;;;;;5015810;28;20237;-72
2024/01/01 02:35:45;;;;;;;9.67;1.57;;;23.30;99.90;;;;;;5015921;28;20541;-74
2024/01/01 02:38:13;;;;;;;8.53;1.40;;;23.30;99.90;;;;;;4983986;28;20536;-72
2024/01/01 02:40:41;;;;;;;7.23;1.43;;;23.40;99.90;;;;;;5009042;28;20186;-73
2024/01/01 02:43:08;;;;;;;5.67;1.10;;;23.50;99.90;;;;;;5013820;28;20236;-73
2024/01/01 02:45:36;;;;;;;4.70;1.30;;;23.50;99.90;;;;;;5013344;28;20185;-73
2024/01/01 02:48:04;;;;;;;5.03;0.93;;;23.60;99.90;;;;;;5013997;28;20189;-73
2024/01/01 02:50:33;;;;;;;3.50;0.90;;;23.50;99.90;;;;;;5014164;28;20235;-73
2024/01/01 02:53:00;;;;;;;4.37;1.27;;;23.50;99.90;;;;;;5013255;28;20679;-73
2024/01/01 02:55:28;;;;;;;3.17;1.00;;;23.40;99.90;;;;;;5013673;28;20236;-73
2024/01/01 02:57:56;;;;;;;5.97;1.17;;;23.50;99.90;;;;;;5013485;28;20182;-73
2024/01/01 03:00:23;;;;;;;3.20;1.07;;;23.60;99.90;;;;;;5013074;28;20230;-72
2024/01/01 03:02:52;;;;;;;9.57;1.33;;;23.60;99.90;;;;;;5013906;28;20193;-72
2024/01/01 03:05:25;;;;;;;5.90;1.13;;;23.60;99.90;;;;;;5013662;28;20229;-73
2024/01/01 03:07:53;;;;;;;4.23;1.00;;;23.90;99.90;;;;;;5013524;28;20210;-73
2024/01/01 03:10:21;;;;;;;8.63;1.70;;;24.20;99.90;;;;;;5014132;28;20174;-73
2024/01/01 03:12:48;;;;;;;3.77;1.10;;;24.20;99.90;;;;;;5013996;28;20256;-73
2024/01/01 03:15:16;;;;;;;6.47;1.17;;;24.10;99.90;;;;;;5013587;28;20247;-73
2024/01/01 03:17:45;;;;;;;9.23;1.10;;;23.90;99.90;;;;;;5013974;28;20272;-73
2024/01/01 03:20:13;;;;;;;5.00;1.00;;;24.00;99.90;;;;;;5013642;28;20189;-73
2024/01/01 03:22:42;;;;;;;6.40;1.50;;;24.10;99.90;;;;;;5013151;28;20193;-73
2024/01/01 03:25:10;;;;;;;6.50;1.00;;;24.10;99.90;;;;;;5013351;28;20228;-73
2024/01/01 03:27:37;;;;;;;19.63;2.37;;;24.00;99.90;;;;;;5013715;28;20194;-73
2024/01/01 03:30:06;;;;;;;3.63;0.97;;;23.90;99.90;;;;;;4995838;28;20205;-72
2024/01/01 03:32:37;;;;;;;6.33;1.50;;;23.80;99.90;;;;;;5013081;28;20224;-73
2024/01/01 03:35:05;;;;;;;1.40;0.80;;;23.50;99.90;;;;;;5013096;28;20198;-74
2024/01/01 03:37:33;;;;;;;3.87;1.30;;;23.20;99.90;;;;;;5012631;28;20663;-73
2024/01/01 03:40:01;;;;;;;3.53;1.30;;;23.10;99.90;;;;;;5010500;28;20193;-73
2024/01/01 03:42:28;;;;;;;7.47;1.20;;;23.00;99.90;;;;;;5012616;28;20674;-73
2024/01/01 03:44:56;;;;;;;7.83;1.00;;;23.10;99.90;;;;;;5011583;28;20190;-72
2024/01/01 03:47:23;;;;;;;4.43;0.93;;;23.20;99.90;;;;;;5012633;28;20178;-72
2024/01/01 03:49:51;;;;;;;4.60;1.67;;;23.20;99.90;;;;;;5013382;28;20186;-72
2024/01/01 03:52:19;;;;;;;3.37;1.20;;;23.30;99.90;;;;;;5012648;28;20181;-72
2024/01/01 03:54:47;;;;;;;4.53;1.33;;;23.30;99.90;;;;;;5012976;28;20324;-72
2024/01/01 03:57:14;;;;;;;5.97;1.30;;;23.30;99.90;;;;;;4995192;28;20605;-72
2024/01/01 03:59:42;;;;;;;7.83;1.57;;;23.40;99.90;;;;;;5012235;28;20229;-73
2024/01/01 04:02:10;;;;;;;6.10;1.60;;;23.40;99.90;;;;;;5013035;28;20186;-72
2024/01/01 04:04:42;;;;;;;3.50;1.40;;;23.50;99.90;;;;;;5012678;28;20667;-72
2024/01/01 04:07:13;;;;;;;6.47;1.67;;;23.50;99.90;;;;;;5012068;28;20186;-71
2024/01/01 04:09:41;;;;;;;11.30;1.90;;;23.50;99.90;;;;;;5012303;28;20197;-72
2024/01/01 04:12:09;;;;;;;5.47;1.67;;;23.60;99.90;;;;;;5012582;28;20655;-73
2024/01/01 04:14:38;;;;;;;6.97;1.40;;;23.60;99.90;;;;;;5012167;28;20229;-73
2024/01/01 04:17:05;;;;;;;8.50;1.70;;;23.60;99.90;;;;;;5013002;28;20174;-72
2024/01/01 04:19:33;;;;;;;7.07;1.40;;;23.80;99.90;;;;;;5012568;28;20182;-73
2024/01/01 04:22:01;;;;;;;6.87;1.83;;;23.60;99.90;;;;;;5012297;28;20178;-72
2024/01/01 04:24:29;;;;;;;6.43;1.47;;;23.50;99.90;;;;;;5012630;28;20193;-73
2024/01/01 04:26:57;;;;;;;7.37;2.03;;;23.50;99.90;;;;;;5012664;28;20258;-73
2024/01/01 04:29:38;;;;;;;7.87;2.13;;;23.50;99.90;;;;;;5088605;27;20567;-74
2024/01/01 04:32:05;;;;;;;6.63;1.67;;;23.50;99.90;;;;;;5088843;28;20243;-74
2024/01/01 04:34:32;;;;;;;8.73;1.70;;;23.50;99.90;;;;;;5088133;28;20182;-74
2024/01/01 04:37:00;;;;;;;10.33;1.67;;;23.50;99.90;;;;;;5075133;28;20329;-74
2024/01/01 04:39:28;;;;;;;7.43;1.50;;;23.50;99.90;;;;;;5077773;28;20194;-73
2024/01/01 04:41:55;;;;;;;6.80;1.70;;;23.50;99.90;;;;;;5083103;28;20186;-74
2024/01/01 04:44:22;;;;;;;9.40;1.80;;;23.50;99.90;;;;;;5070972;28;20590;-74
2024/01/01 04:46:50;;;;;;;12.13;1.97;;;23.50;99.90;;;;;;5067359;28;20180;-74
2024/01/01 04:49:17;;;;;;;9.17;2.07;;;23.50;99.90;;;;;;5082981;28;20238;-74
2024/01/01 04:51:44;;;;;;;8.73;1.60;;;23.50;99.90;;;;;;5087641;28;20542;-74
2024/01/01 04:54:12;;;;;;;9.33;1.83;;;23.60;99.90;;;;;;5087192;28;20278;-74
2024/01/01 04:56:39;;;;;;;10.03;1.57;;;23.60;99.90;;;;;;5087086;28;20187;-73
2024/01/01 04:59:07;;;;;;;7.87;1.90;;;23.60;99.90;;;;;;5091573;28;20649;-73
2024/01/01 05:01:34;;;;;;;9.80;2.30;;;23.60;99.90;;;;;;5081658;28;20191;-74
2024/01/01 05:04:02;;;;;;;9.33;2.00;;;23.60;99.90;;;;;;5074563;28;20668;-74
2024/01/01 05:06:29;;;;;;;10.00;1.93;;;23.70;99.90;;;;;;5086757;28;20187;-73
2024/01/01 05:08:56;;;;;;;13.90;2.03;;;23.70;99.90;;;;;;5074685;28;20277;-74
2024/01/01 05:11:24;;;;;;;8.97;1.63;;;23.80;99.90;;;;;;5072427;28;20225;-74
2024/01/01 05:13:51;;;;;;;10.67;2.00;;;23.90;99.90;;;;;;5087627;28;20325;-74
2024/01/01 05:16:19;;;;;;;7.57;1.80;;;23.80;99.90;;;;;;5088251;28;20179;-72
2024/01/01 05:18:46;;;;;;;8.77;1.80;;;23.80;99.90;;;;;;5085236;28;20269;-71
2024/01/01 05:21:13;;;;;;;14.47;2.13;;;23.80;99.90;;;;;;5067138;28;20218;-72
2024/01/01 05:23:40;;;;;;;12.73;2.00;;;23.80;99.90;;;;;;5067969;28;20580;-73
2024/01/01 05:26:08;;;;;;;12.43;2.23;;;23.80;99.90;;;;;;5067884;28;20168;-71
2024/01/01 05:28:36;;;;;;;13.70;2.33;;;23.80;99.90;;;;;;5067023;28;20274;-72
2024/01/01 05:31:03;;;;;;;11.87;2.03;;;23.90;99.90;;;;;;5067694;28;20645;-72
2024/01/01 05:33:30;;;;;;;7.67;1.60;;;23.90;99.90;;;;;;5067809;28;20193;-72
2024/01/01 05:35:58;;;;;;;9.90;1.70;;;24.00;99.90;;;;;;5068525;28;20168;-74
2024/01/01 05:38:25;;;;;;;10.87;1.93;;;24.00;99.90;;;;;;5068716;28;20188;-72
2024/01/01 05:40:52;;;;;;;14.77;1.93;;;24.00;99.90;;;;;;5054084;28;20583;-72
2024/01/01 05:43:21;;;;;;;10.27;1.77;;;24.00;99.90;;;;;;5055303;28;20370;-72
2024/01/01 05:45:49;;;;;;;11.07;1.93;;;23.90;99.90;;;;;;5053972;28;20181;-72
2024/01/01 05:48:16;;;;;;;11.60;2.00;;;23.90;99.90;;;;;;5053747;28;20215;-72
2024/01/01 05:50:44;;;;;;;6.33;1.60;;;23.90;99.90;;;;;;5040981;28;20176;-72
2024/01/01 05:53:11;;;;;;;10.07;2.20;;;23.90;99.90;;;;;;5046638;28;20179;-72
2024/01/01 05:55:38;;;;;;;9.17;2.03;;;23.80;99.90;;;;;;5052380;28;20180;-73
2024/01/01 05:58:06;;;;;;;17.80;2.30;;;23.80;99.90;;;;;;5053314;28;20184;-73
2024/01/01 06:00:36;;;;;;;16.47;2.20;;;23.80;99.90;;;;;;5052882;28;20168;-74
2024/01/01 06:03:05;;;;;;;12.47;2.00;;;23.80;99.90;;;;;;5052939;28;20193;-72
2024/01/01 06:05:38;;;;;;;9.50;1.90;;;23.90;99.90;;;;;;5054754;28;20188;-72
2024/01/01 06:08:06;;;;;;;18.17;2.97;;;23.90;99.90;;;;;;5053181;28;20232;-73
2024/01/01 06:10:34;;;;;;;11.93;2.77;;;24.00;99.90;;;;;;5066526;28;20184;-73
2024/01/01 06:13:02;;;;;;;10.43;2.13;;;24.00;99.90;;;;;;5073853;28;20255;-73
2024/01/01 06:15:29;;;;;;;16.30;2.60;;;23.90;99.90;;;;;;5072594;28;20675;-73
2024/01/01 06:17:57;;;;;;;9.17;2.40;;;24.00;99.90;;;;;;5073630;28;20172;-74
2024/01/01 06:20:24;;;;;;;18.87;3.37;;;24.00;99.90;;;;;;5073537;28;20667;-74
2024/01/01 06:22:51;;;;;;;11.73;2.47;;;24.00;99.90;;;;;;5072973;28;20205;-73
2024/01/01 06:25:19;;;;;;;11.10;2.20;;;24.10;99.90;;;;;;5073398;28;20245;-73
2024/01/01 06:27:46;;;;;;;13.77;2.10;;;24.10;99.90;;;;;;5073249;28;20232;-71
2024/01/01 06:30:14;;;;;;;9.73;1.93;;;24.10;99.90;;;;;;5073018;28;20229;-73
2024/01/01 06:32:41;;;;;;;12.67;2.10;;;24.10;99.90;;;;;;5073415;28;20168;-73
2024/01/01 06:35:09;;;;;;;15.40;3.10;;;24.10;99.90;;;;;;5074234;28;20241;-74
2024/01/01 06:37:36;;;;;;;10.30;2.93;;;24.10;99.90;;;;;;5045704;28;21058;-74
2024/01/01 06:40:03;;;;;;;12.73;2.70;;;24.00;99.90;;;;;;5056338;28;20180;-73
2024/01/01 06:42:31;;;;;;;11.47;2.07;;;24.00;99.90;;;;;;5053127;28;20550;-72
2024/01/01 06:45:01;;;;;;;13.20;2.23;;;23.90;99.90;;;;;;5052397;28;20540;-73
2024/01/01 06:47:29;;;;;;;12.00;2.23;;;23.90;99.90;;;;;;5052813;28;20196;-72
2024/01/01 06:49:56;;;;;;;16.27;2.17;;;23.90;99.90;;;;;;5057771;28;20220;-72
2024/01/01 06:52:23;;;;;;;11.77;2.10;;;23.80;99.90;;;;;;5051602;28;20279;-72
2024/01/01 06:54:51;;;;;;;15.70;2.50;;;23.80;99.90;;;;;;5059481;28;20310;-72
2024/01/01 06:57:18;;;;;;;10.80;2.37;;;23.80;99.90;;;;;;5062675;28;20184;-74
2024/01/01 06:59:45;;;;;;;8.73;1.97;;;23.80;99.90;;;;;;5059999;28;20185;-73
2024/01/01 07:02:12;;;;;;;9.43;1.93;;;23.80;99.90;;;;;;5064972;28;20247;-73
2024/01/01 07:04:40;;;;;;;9.80;2.20;;;23.80;99.90;;;;;;5065419;28;20219;-73
2024/01/01 07:07:07;;;;;;;10.40;1.90;;;23.90;99.90;;;;;;5071600;28;20176;-73
2024/01/01 07:09:34;;;;;;;14.57;2.10;;;23.90;99.90;;;;;;5072125;28;20311;-72
2024/01/01 07:12:30;;;;;;;17.60;2.80;;;23.90;99.90;;;;;;5055631;28;20646;-73
2024/01/01 07:14:57;;;;;;;13.07;2.40;;;23.80;99.90;;;;;;5066483;28;20191;-73
2024/01/01 07:17:24;;;;;;;11.00;2.60;;;23.80;99.90;;;;;;5072500;28;20207;-72
2024/01/01 07:19:52;;;;;;;13.47;2.50;;;23.80;99.90;;;;;;5060954;28;20183;-73
2024/01/01 07:22:19;;;;;;;11.70;2.60;;;23.80;99.90;;;;;;5071250;28;20218;-72
2024/01/01 07:24:47;;;;;;;12.00;2.13;;;23.80;99.90;;;;;;5069339;28;20213;-73
2024/01/01 07:27:14;;;;;;;11.43;2.23;;;23.80;99.90;;;;;;5058400;28;20172;-73
2024/01/01 07:29:41;;;;;;;12.30;2.10;;;23.80;99.90;;;;;;5059845;28;20184;-73
2024/01/01 07:32:09;;;;;;;9.40;2.10;;;23.70;99.90;;;;;;5070465;28;20229;-73
2024/01/01 07:34:36;;;;;;;14.97;2.50;;;23.70;99.90;;;;;;5066111;28;20678;-73
2024/01/01 07:37:04;;;;;;;10.40;1.80;;;23.70;99.90;;;;;;5053188;28;20181;-73
2024/01/01 07:39:32;;;;;;;15.80;2.90;;;23.60;99.90;;;;;;5061684;28;20190;-72
2024/01/01 07:41:59;;;;;;;11.03;2.00;;;23.50;99.90;;;;;;5071367;28;20179;-73
2024/01/01 07:44:27;;;;;;;19.63;2.40;;;23.60;99.90;;;;;;5071740;28;20316;-73
2024/01/01 07:46:54;;;;;;;9.40;2.73;;;23.60;99.90;;;;;;5071617;28;20210;-72
2024/01/01 07:49:22;;;;;;;13.73;2.43;;;23.60;99.90;;;;;;5071335;28;20211;-72
2024/01/01 07:51:50;;;;;;;13.90;2.43;;;23.60;99.90;;;;;;5066848;28;20211;-72
2024/01/01 07:54:17;;;;;;;15.90;2.40;;;23.50;99.90;;;;;;5050724;28;20177;-72
2024/01/01 07:56:47;;;;;;;14.97;2.60;;;23.50;99.90;;;;;;5051736;28;20668;-72
2024/01/01 07:59:14;;;;;;;8.30;2.33;;;23.50;99.90;;;;;;5051337;28;20559;-72
2024/01/01 08:01:42;;;;;;;11.57;2.40;;;23.50;99.90;;;;;;5051558;28;20181;-72
2024/01/01 08:04:09;;;;;;;15.40;2.90;;;23.50;99.90;;;;;;5051589;28;20188;-73
2024/01/01 08:06:37;;;;;;;12.20;2.40;;;23.40;99.90;;;;;;5051369;28;20186;-74
2024/01/01 08:09:05;;;;;;;17.13;2.30;;;23.50;99.90;;;;;;5062291;28;20214;-73
2024/01/01 08:11:32;;;;;;;11.70;2.83;;;23.50;99.90;;;;;;5053607;28;20637;-73
2024/01/01 08:13:59;;;;;;;17.20;2.57;;;23.50;99.90;;;;;;5068209;28;20192;-73
2024/01/01 08:16:26;;;;;;;11.70;2.33;;;23.50;99.90;;;;;;5072559;28;20183;-73
2024/01/01 08:18:54;;;;;;;15.20;3.10;;;23.50;99.90;;;;;;5072703;28;20633;-73
2024/01/01 08:21:21;;;;;;;10.50;2.83;;;23.50;99.90;;;;;;5072565;28;20535;-73
2024/01/01 08:23:49;;;;;;;17.03;3.03;;;23.40;99.90;;;;;;5072696;28;20175;-73
2024/01/01 08:26:16;;;;;;;8.67;2.27;;;23.40;99.90;;;;;;5072713;28;20187;-73
2024/01/01 08:28:46;;;;;;;17.10;2.53;;;23.40;99.90;;;;;;5072489;28;20266;-73
2024/01/01 08:31:14;;;;;;;17.43;3.10;;;23.40;99.90;;;;;;5072695;28;20180;-73
2024/01/01 08:33:41;;;;;;;16.87;2.50;;;23.50;99.90;;;;;;5072912;28;20206;-74
2024/01/01 08:36:08;;;;;;;11.07;2.70;;;23.40;99.90;;;;;;5072852;28;20172;-73
2024/01/01 08:38:36;;;;;;;9.83;2.00;;;23.40;99.90;;;;;;5072614;28;20180;-73
2024/01/01 08:41:04;;;;;;;13.20;2.23;;;23.40;99.90;;;;;;5072583;28;20180;-72
2024/01/01 08:43:32;;;;;;;13.53;2.60;;;23.50;99.90;;;;;;5072508;28;20241;-72
2024/01/01 08:46:00;;;;;;;23.03;3.50;;;23.50;99.90;;;;;;5072934;28;20179;-73
2024/01/01 08:48:27;;;;;;;16.80;2.77;;;23.40;99.90;;;;;;5072575;28;20200;-72
2024/01/01 08:50:54;;;;;;;15.13;2.60;;;23.40;99.90;;;;;;5073069;28;20615;-73
2024/01/01 08:53:22;;;;;;;11.47;2.20;;;23.50;99.90;;;;;;5074295;28;20178;-73
2024/01/01 08:55:49;;;;;;;17.17;3.07;;;23.40;99.90;;;;;;5073807;28;20306;-73
2024/01/01 08:58:16;;;;;;;11.90;3.10;;;23.40;99.90;;;;;;5072783;28;20168;-73
2024/01/01 09:00:44;;;;;;;12.37;2.60;;;23.50;99.90;;;;;;5072560;28;20172;-73
2024/01/01 09:03:11;;;;;;;12.33;2.80;;;23.40;99.90;;;;;;5071177;28;20277;-73
2024/01/01 09:05:38;;;;;;;13.77;2.23;;;23.30;99.90;;;;;;5072517;28;20204;-72
2024/01/01 09:08:06;;;;;;;14.17;2.50;;;23.40;99.90;;;;;;5072425;28;20211;-74
2024/01/01 09:10:33;;;;;;;10.77;2.67;;;23.40;99.90;;;;;;5072485;28;20193;-73
2024/01/01 09:13:01;;;;;;;14.33;2.93;;;23.40;99.90;;;;;;5072098;28;20282;-73
2024/01/01 09:15:28;;;;;;;13.00;2.20;;;23.40;99.90;;;;;;5074795;28;20636;-73
2024/01/01 09:17:55;;;;;;;12.73;2.43;;;23.40;99.90;;;;;;5075931;28;20310;-73
2024/01/01 09:20:23;;;;;;;15.80;2.90;;;23.40;99.90;;;;;;5075928;28;20182;-73
2024/01/01 09:22:51;;;;;;;16.03;2.53;;;23.40;99.90;;;;;;5075967;28;20266;-73
2024/01/01 09:25:18;;;;;;;11.43;2.57;;;23.40;99.90;;;;;;5075752;28;20183;-74
2024/01/01 09:27:47;;;;;;;17.43;2.90;;;23.30;99.90;;;;;;5074218;28;20250;-73
2024/01/01 09:30:15;;;;;;;16.47;2.63;;;23.30;99.90;;;;;;5075821;28;20171;-73
2024/01/01 09:32:42;;;;;;;11.20;2.60;;;23.40;99.90;;;;;;5075908;28;20194;-73
2024/01/01 09:35:09;;;;;;;16.97;3.23;;;23.50;99.90;;;;;;5075801;28;20180;-73
2024/01/01 09:37:40;;;;;;;21.53;2.60;;;23.40;99.90;;;;;;5075743;28;20251;-72
2024/01/01 09:40:08;;;;;;;18.37;3.60;;;23.30;99.90;;;;;;5075590;28;20241;-73
2024/01/01 09:42:35;;;;;;;11.13;2.63;;;23.40;99.90;;;;;;5037398;28;20183;-74
2024/01/01 09:45:03;;;;;;;24.33;3.27;;;23.50;99.90;;;;;;5053023;28;20549;-74
2024/01/01 09:47:31;;;;;;;16.93;3.43;;;23.50;99.90;;;;;;5053911;28;20185;-73
2024/01/01 09:49:58;;;;;;;14.63;2.87;;;23.50;99.90;;;;;;5053558;28;20177;-74
2024/01/01 09:52:25;;;;;;;14.67;3.30;;;23.40;99.90;;;;;;5070449;28;20388;-73
2024/01/01 09:54:53;;;;;;;12.70;2.40;;;23.40;99.90;;;;;;5073415;28;20183;-72
2024/01/01 09:57:20;;;;;;;17.63;3.00;;;23.40;99.90;;;;;;5073459;28;20671;-73
2024/01/01 09:59:47;;;;;;;20.23;3.10;;;23.40;99.90;;;;;;5073899;28;20187;-74
2024/01/01 10:02:14;;;;;;;11.97;2.73;;;23.40;99.90;;;;;;5067693;28;20637;-73
2024/01/01 10:04:42;;;;;;;12.40;2.53;;;23.50;99.90;;;;;;5068600;28;20176;-74
2024/01/01 10:07:10;;;;;;;18.77;2.80;;;23.50;99.90;;;;;;5057658;28;20266;-73
2024/01/01 10:09:49;;;;;;;13.17;2.87;;;23.50;99.90;;;;;;5034081;28;20949;-74
2024/01/01 10:12:21;;;;;;;16.20;2.50;;;23.40;99.90;;;;;;5038521;28;20572;-74
2024/01/01 10:14:49;;;;;;;16.83;3.60;;;23.40;99.90;;;;;;5053822;28;20830;-73
2024/01/01 10:17:18;;;;;;;18.83;3.07;;;23.40;99.90;;;;;;5052788;28;20254;-74
2024/01/01 10:19:53;;;;;;;20.00;3.50;;;23.40;99.90;;;;;;5057353;28;20668;-74
2024/01/01 10:22:23;;;;;;;15.20;3.07;;;23.40;99.90;;;;;;5073857;28;20205;-74
2024/01/01 10:24:55;;;;;;;16.77;2.77;;;23.30;99.90;;;;;;5073648;28;20199;-74
2024/01/01 10:27:23;;;;;;;12.77;2.47;;;23.30;99.90;;;;;;5072984;28;20171;-73
2024/01/01 10:29:50;;;;;;;13.30;2.70;;;23.30;99.90;;;;;;5068979;28;20200;-74
2024/01/01 10:32:18;;;;;;;13.80;2.70;;;23.30;99.90;;;;;;5061954;28;20710;-75
2024/01/01 10:34:49;;;;;;;13.70;2.60;;;23.30;99.90;;;;;;5069859;28;20303;-74
2024/01/01 10:37:20;;;;;;;15.73;3.47;;;23.20;99.90;;;;;;5054338;28;20279;-74
2024/01/01 10:39:48;;;;;;;13.67;2.30;;;23.30;99.90;;;;;;5054254;28;20271;-73
2024/01/01 10:42:17;;;;;;;13.97;2.63;;;23.30;99.90;;;;;;5065003;28;20214;-73
2024/01/01 10:44:45;;;;;;;20.43;3.00;;;23.20;99.90;;;;;;5060041;28;20259;-73
2024/01/01 10:47:14;;;;;;;10.93;2.83;;;23.20;99.90;;;;;;5054543;28;20187;-73
2024/01/01 10:49:59;;;;;;;13.67;3.03;;;23.30;99.90;;;;;;5053147;28;20726;-73
2024/01/01 10:52:36;;;;;;;13.10;2.50;;;23.40;99.90;;;;;;5054343;28;20276;-72
2024/01/01 10:55:21;;;;;;;14.93;3.10;;;23.40;99.90;;;;;;5054355;28;20655;-72
2024/01/01 10:58:09;;;;;;;13.03;2.80;;;23.30;99.90;;;;;;5054387;28;20217;-73
2024/01/01 11:01:13;;;;;;;22.23;3.77;;;23.20;99.90;;;;;;5054219;28;20210;-73
2024/01/01 11:03:46;;;;;;;13.90;2.87;;;23.20;99.90;;;;;;5069841;28;20648;-73
2024/01/01 11:06:31;;;;;;;15.80;3.10;;;23.30;99.90;;;;;;5073891;28;20199;-73
2024/01/01 11:09:19;;;;;;;14.70;2.80;;;23.20;99.90;;;;;;5074254;28;20204;-73
2024/01/01 11:11:51;;;;;;;10.03;2.57;;;23.10;99.90;;;;;;5074167;28;20183;-74
2024/01/01 11:14:26;;;;;;;13.50;3.33;;;23.10;99.90;;;;;;5069973;28;20259;-72
2024/01/01 11:16:55;;;;;;;21.77;3.40;;;23.00;99.90;;;;;;5073807;28;20175;-74
2024/01/01 11:19:46;;;;;;;17.13;2.93;;;23.00;99.90;;;;;;5073611;28;20263;-74
2024/01/01 11:22:33;;;;;;;17.70;3.10;;;22.90;99.90;;;;;;5072685;28;20273;-74
2024/01/01 11:25:02;;;;;;;12.30;2.60;;;22.90;99.90;;;;;;5053654;28;20263;-73
2024/01/01 11:27:46;;;;;;;20.20;4.13;;;22.80;99.90;;;;;;5053058;28;20273;-73
2024/01/01 11:30:16;;;;;;;11.37;2.80;;;22.90;99.90;;;;;;5053689;28;20187;-75
2024/01/01 11:32:44;;;;;;;12.23;2.53;;;22.80;99.90;;;;;;5053519;28;20271;-72
2024/01/01 11:35:16;;;;;;;13.33;2.87;;;22.90;99.90;;;;;;5053658;28;20252;-72
2024/01/01 11:37:45;;;;;;;14.63;2.83;;;22.90;99.90;;;;;;5055720;28;20188;-72
2024/01/01 11:40:13;;;;;;;8.40;2.23;;;22.80;99.90;;;;;;5072930;28;20612;-73
2024/01/01 11:42:41;;;;;;;15.20;2.50;;;22.80;99.90;;;;;;5073650;28;20179;-72
2024/01/01 11:45:12;;;;;;;18.87;3.70;;;22.80;99.90;;;;;;5073027;28;20196;-72
2024/01/01 11:47:44;;;;;;;14.23;3.47;;;22.70;99.90;;;;;;5073114;28;20265;-72
2024/01/01 11:50:12;;;;;;;10.20;2.37;;;22.70;99.90;;;;;;5061477;28;20192;-72
2024/01/01 11:52:41;;;;;;;9.77;2.80;;;22.70;99.90;;;;;;5053246;28;20172;-72
2024/01/01 11:55:09;;;;;;;14.70;3.10;;;22.60;99.90;;;;;;5053267;28;20185;-72
2024/01/01 11:57:36;;;;;;;11.97;2.73;;;22.60;99.90;;;;;;5053128;28;20645;-72
2024/01/01 12:00:04;;;;;;;15.70;3.00;;;22.60;99.90;;;;;;5052842;28;20212;-72
2024/01/01 12:02:33;;;;;;;16.13;3.57;;;22.60;99.90;;;;;;5059627;28;20188;-72
2024/01/01 12:05:00;;;;;;;13.97;2.90;;;22.60;99.90;;;;;;5053052;28;20234;-73
2024/01/01 12:07:35;;;;;;;10.97;2.07;;;22.50;99.90;;;;;;5052852;28;20179;-73
2024/01/01 12:10:08;;;;;;;15.80;3.57;;;22.50;99.90;;;;;;5052828;28;20708;-72
2024/01/01 12:12:40;;;;;;;17.53;3.27;;;22.50;99.90;;;;;;5052999;28;20181;-73
2024/01/01 12:15:14;;;;;;;13.00;2.53;;;22.60;99.90;;;;;;5071405;28;20176;-72
2024/01/01 12:17:42;;;;;;;11.53;3.10;;;22.50;99.90;;;;;;5072994;28;20652;-72
2024/01/01 12:20:14;;;;;;;11.53;2.50;;;22.60;99.90;;;;;;5057336;28;20177;-72
2024/01/01 12:22:41;;;;;;;15.13;2.37;;;22.60;99.90;;;;;;5070109;28;20652;-72
2024/01/01 12:25:18;;;;;;;15.43;2.57;;;22.60;99.90;;;;;;5072531;28;20175;-72
2024/01/01 12:28:01;;;;;;;12.37;2.33;;;22.60;99.90;;;;;;5072332;28;20287;-73
2024/01/01 12:30:30;;;;;;;8.63;2.20;;;22.50;99.90;;;;;;5058506;28;20618;-74
2024/01/01 12:32:57;;;;;;;14.87;2.53;;;22.50;99.90;;;;;;5052589;28;20188;-73
2024/01/01 12:35:25;;;;;;;15.00;2.87;;;22.50;99.90;;;;;;5052754;28;20187;-73
2024/01/01 12:37:54;;;;;;;8.13;2.10;;;22.40;99.90;;;;;;5052928;28;20179;-73
2024/01/01 12:40:22;;;;;;;9.90;2.63;;;22.40;99.90;;;;;;5068313;28;20287;-73
2024/01/01 12:42:49;;;;;;;12.93;2.43;;;22.40;99.90;;;;;;5072270;28;20188;-73
2024/01/01 12:45:17;;;;;;;13.37;2.30;;;22.50;99.90;;;;;;5071261;28;20183;-73
2024/01/01 12:47:44;;;;;;;9.90;2.30;;;22.50;99.90;;;;;;5071744;28;20218;-73
2024/01/01 12:50:11;;;;;;;11.27;2.10;;;22.50;99.90;;;;;;5073828;28;20278;-73